Time;durP1;ratioP1;P1;durP2;ratioP2;P2;SDS_P1;SDS_P2;PMS_P1;PMS_P2;Temp;Humidity;BMP_temperature;BMP_pressure;BME280_temperature;BME280_humidity;BME280_pressure;Samples;Min_cycle;Max_cycle;Signal;HPM_P1;HPM_P2
2024/04/24 00:00:48;;;;;;;;;;;;;;;20.58;28.48;101357.09;4285377;27;20359;-64
2024/04/24 00:02:50;;;;;;;;;;;;;;;20.61;28.59;101348.03;4304338;27;19932;-65
2024/04/24 00:04:52;;;;;;;;;;;;;;;20.59;28.12;101343.63;4285695;27;20307;-64
2024/04/24 00:06:54;;;;;;;;;;;;;;;20.58;28.69;101344.63;4289184;27;19943;-64
2024/04/24 00:08:56;;;;;;;;;;;;;;;20.57;28.21;101340.22;4300780;27;20331;-64
2024/04/24 00:10:57;;;;;;;;;;;;;;;20.58;28.64;101338.41;4284322;27;19940;-64
2024/04/24 00:12:59;;;;;;;;;;;;;;;20.58;28.30;101333.94;4301039;27;20266;-65
2024/04/24 00:15:01;;;;;;;;;;;;;;;20.56;28.09;101334.97;4288358;27;19932;-64
2024/04/24 00:17:03;;;;;;;;;;;;;;;20.55;28.78;101331.44;4287212;27;19933;-65
2024/04/24 00:19:05;;;;;;;;;;;;;;;20.54;28.96;101335.09;4293698;27;20410;-64
2024/04/24 00:21:10;;;;;;;;;;;;;;;20.54;28.85;101329.72;4312215;27;19932;-65
2024/04/24 00:23:11;;;;;;;;;;;;;;;20.56;28.80;101322.47;4296757;27;19936;-64
2024/04/24 00:25:13;;;;;;;;;;;;;;;20.57;28.51;101315.31;4306756;27;19944;-65
2024/04/24 00:27:15;;;;;;;;;;;;;;;20.56;28.73;101306.44;4308863;27;20363;-64
2024/04/24 00:29:16;;;;;;;;;;;;;;;20.57;29.03;101313.50;4264964;27;20459;-64
2024/04/24 00:31:18;;;;;;;;;;;;;;;20.58;28.88;101304.53;4277374;27;19938;-64
2024/04/24 00:33:20;;;;;;;;;;;;;;;20.58;28.95;101301.00;4296871;27;20014;-65
2024/04/24 00:35:22;;;;;;;;;;;;;;;20.57;29.23;101296.59;4292818;27;19933;-64
2024/04/24 00:37:24;;;;;;;;;;;;;;;20.56;29.15;101297.56;4286884;27;19933;-64
2024/04/24 00:39:25;;;;;;;;;;;;;;;20.57;29.15;101299.28;4303019;27;19932;-65
2024/04/24 00:41:27;;;;;;;;;;;;;;;20.55;28.72;101295.88;4284125;27;19939;-64
2024/04/24 00:43:29;;;;;;;;;;;;;;;20.55;29.29;101293.19;4294144;27;19942;-64
2024/04/24 00:45:30;;;;;;;;;;;;;;;20.53;29.24;101292.44;4295329;27;19941;-64
2024/04/24 00:47:34;;;;;;;;;;;;;;;20.52;29.40;101285.38;4285224;27;20008;-64
2024/04/24 00:49:36;;;;;;;;;;;;;;;20.51;29.48;101286.34;4303532;27;19932;-64
2024/04/24 00:51:38;;;;;;;;;;;;;;;20.53;29.40;101287.94;4284599;27;19945;-65
2024/04/24 00:53:40;;;;;;;;;;;;;;;20.55;28.98;101285.19;4292031;27;20294;-64
2024/04/24 00:55:42;;;;;;;;;;;;;;;20.57;29.27;101283.25;4296744;27;19939;-64
2024/04/24 00:57:44;;;;;;;;;;;;;;;20.55;29.23;101279.84;4284844;27;19933;-64
2024/04/24 00:59:46;;;;;;;;;;;;;;;20.53;29.09;101282.59;4275815;27;19943;-65
2024/04/24 01:01:47;;;;;;;;;;;;;;;20.55;29.35;101272.66;4284980;27;19940;-64
2024/04/24 01:03:49;;;;;;;;;;;;;;;20.55;29.27;101286.03;4289340;27;19932;-64
2024/04/24 01:05:51;;;;;;;;;;;;;;;20.53;29.62;101274.56;4300012;27;19987;-64
2024/04/24 01:07:52;;;;;;;;;;;;;;;20.51;29.75;101279.19;4284503;27;19933;-64
2024/04/24 01:09:54;;;;;;;;;;;;;;;20.50;28.83;101280.16;4290384;27;19932;-64
2024/04/24 01:11:56;;;;;;;;;;;;;;;20.49;29.56;101280.25;4308481;27;20051;-64
2024/04/24 01:13:58;;;;;;;;;;;;;;;20.49;29.33;101274.91;4309258;27;19955;-64
2024/04/24 01:16:11;;;;;;;;;;;;;;;20.48;29.34;101279.38;4276031;27;19932;-64
2024/04/24 01:18:13;;;;;;;;;;;;;;;20.47;29.18;101274.16;4257651;27;19934;-64
2024/04/24 01:20:17;;;;;;;;;;;;;;;20.47;29.20;101277.66;4300395;27;20007;-64
2024/04/24 01:22:29;;;;;;;;;;;;;;;20.43;29.31;101268.16;4286422;27;20429;-64
2024/04/24 01:24:33;;;;;;;;;;;;;;;20.40;29.75;101263.03;4288752;27;19940;-64
2024/04/24 01:26:53;;;;;;;;;;;;;;;20.40;29.48;101265.69;4298797;27;19967;-63
2024/04/24 01:28:55;;;;;;;;;;;;;;;20.39;29.45;101264.84;4285069;27;19933;-64
2024/04/24 01:30:56;;;;;;;;;;;;;;;20.39;29.95;101262.19;4303755;27;19940;-64
2024/04/24 01:32:58;;;;;;;;;;;;;;;20.37;29.52;101264.09;4284350;27;20267;-64
2024/04/24 01:35:00;;;;;;;;;;;;;;;20.37;30.23;101257.91;4291048;27;19940;-62
2024/04/24 01:37:02;;;;;;;;;;;;;;;20.36;30.09;101264.22;4297366;27;20004;-62
2024/04/24 01:39:04;;;;;;;;;;;;;;;20.36;30.01;101258.88;4283745;27;19943;-63
2024/04/24 01:41:06;;;;;;;;;;;;;;;20.37;30.36;101256.06;4294405;27;19933;-63
2024/04/24 01:43:08;;;;;;;;;;;;;;;20.37;29.99;101260.56;4281688;27;20394;-63
2024/04/24 01:45:10;;;;;;;;;;;;;;;20.37;30.47;101258.75;4306389;27;19943;-63
2024/04/24 01:47:12;;;;;;;;;;;;;;;20.36;29.88;101257.03;4295654;27;19932;-62
2024/04/24 01:49:13;;;;;;;;;;;;;;;20.36;30.10;101254.38;4311188;27;19932;-62
2024/04/24 01:51:15;;;;;;;;;;;;;;;20.39;30.02;101256.84;4293956;27;19940;-63
2024/04/24 01:53:16;;;;;;;;;;;;;;;20.38;29.85;101256.94;4278653;27;20274;-63
2024/04/24 01:55:18;;;;;;;;;;;;;;;20.35;29.74;101250.00;4308985;27;20030;-63
2024/04/24 01:57:20;;;;;;;;;;;;;;;20.35;30.19;101251.81;4292587;27;20275;-62
2024/04/24 01:59:21;;;;;;;;;;;;;;;20.31;30.58;101256.50;4311410;27;19932;-63
2024/04/24 02:01:23;;;;;;;;;;;;;;;20.32;30.65;101252.03;4296533;27;20008;-62
2024/04/24 02:03:25;;;;;;;;;;;;;;;20.32;30.64;101258.22;4304863;27;20362;-62
2024/04/24 02:05:27;;;;;;;;;;;;;;;20.32;30.38;101246.69;4308596;27;19933;-62
2024/04/24 02:07:28;;;;;;;;;;;;;;;20.34;30.61;101244.75;4291900;27;19936;-63
2024/04/24 02:09:30;;;;;;;;;;;;;;;20.35;30.70;101244.66;4305980;27;19932;-62
2024/04/24 02:11:32;;;;;;;;;;;;;;;20.36;29.98;101243.69;4294972;27;19975;-62
2024/04/24 02:13:41;;;;;;;;;;;;;;;20.39;30.04;101242.59;4262216;27;19937;-62
2024/04/24 02:15:42;;;;;;;;;;;;;;;20.38;30.31;101236.41;4257404;27;20319;-62
2024/04/24 02:17:44;;;;;;;;;;;;;;;20.39;30.76;101245.28;4290525;27;20051;-61
2024/04/24 02:19:45;;;;;;;;;;;;;;;20.40;30.84;101242.53;4291548;27;19933;-62
2024/04/24 02:21:48;;;;;;;;;;;;;;;20.38;30.71;101241.75;4293131;27;20007;-62
2024/04/24 02:23:50;;;;;;;;;;;;;;;20.38;30.46;101239.09;4293662;27;19937;-61
2024/04/24 02:25:51;;;;;;;;;;;;;;;20.38;30.71;101241.75;4284959;27;20039;-62
2024/04/24 02:27:53;;;;;;;;;;;;;;;20.38;30.32;101238.25;4302102;27;20004;-63
2024/04/24 02:29:55;;;;;;;;;;;;;;;20.38;30.56;101247.09;4283886;27;20006;-62
2024/04/24 02:31:57;;;;;;;;;;;;;;;20.38;30.34;101240.94;4290171;27;20064;-61
2024/04/24 02:34:00;;;;;;;;;;;;;;;20.38;31.08;101235.56;4298566;27;19932;-62
2024/04/24 02:36:02;;;;;;;;;;;;;;;20.36;30.49;101230.31;4313429;27;19932;-62
2024/04/24 02:38:06;;;;;;;;;;;;;;;20.39;30.59;101231.91;4305624;27;20271;-63
2024/04/24 02:40:08;;;;;;;;;;;;;;;20.39;30.93;101231.91;4259266;27;20016;-62
2024/04/24 02:42:09;;;;;;;;;;;;;;;20.38;31.09;101236.41;4288055;27;19944;-61
2024/04/24 02:44:11;;;;;;;;;;;;;;;20.39;30.59;101231.91;4300594;27;19933;-62
2024/04/24 02:46:13;;;;;;;;;;;;;;;20.38;30.31;101231.09;4286491;27;19940;-63
2024/04/24 02:48:14;;;;;;;;;;;;;;;20.37;31.08;101229.38;4304098;27;19939;-62
2024/04/24 02:50:16;;;;;;;;;;;;;;;20.36;30.50;101232.16;4259342;27;20308;-62
2024/04/24 02:52:18;;;;;;;;;;;;;;;20.36;30.83;101226.81;4288679;27;19932;-62
2024/04/24 02:54:20;;;;;;;;;;;;;;;20.35;31.20;101228.63;4302970;27;20390;-63
2024/04/24 02:56:21;;;;;;;;;;;;;;;20.33;31.05;101222.53;4286277;27;19940;-61
2024/04/24 02:58:23;;;;;;;;;;;;;;;20.35;30.64;101217.94;4300914;27;20386;-61
2024/04/24 03:00:27;;;;;;;;;;;;;;;20.35;31.12;101225.97;4290180;27;20454;-61
2024/04/24 03:02:29;;;;;;;;;;;;;;;20.36;31.13;101222.31;4288029;27;19932;-61
2024/04/24 03:04:31;;;;;;;;;;;;;;;20.36;30.70;101221.47;4304145;27;19989;-61
2024/04/24 03:06:32;;;;;;;;;;;;;;;20.36;30.61;101216.97;4285232;27;19933;-62
2024/04/24 03:08:34;;;;;;;;;;;;;;;20.34;30.58;101218.03;4298587;27;20006;-62
2024/04/24 03:10:36;;;;;;;;;;;;;;;20.34;30.80;101220.72;4292649;27;19940;-61
2024/04/24 03:12:37;;;;;;;;;;;;;;;20.32;30.93;101218.16;4287827;27;20199;-60
2024/04/24 03:14:39;;;;;;;;;;;;;;;20.30;31.12;101211.22;4304016;27;19932;-60
2024/04/24 03:16:41;;;;;;;;;;;;;;;20.27;31.36;101215.78;4285698;27;19936;-61
2024/04/24 03:18:42;;;;;;;;;;;;;;;20.26;31.03;101208.72;4290919;27;20035;-61
2024/04/24 03:20:44;;;;;;;;;;;;;;;20.26;31.52;101207.88;4302703;27;20274;-62
2024/04/24 03:22:46;;;;;;;;;;;;;;;20.25;30.98;101201.69;4310916;27;20390;-61
2024/04/24 03:24:48;;;;;;;;;;;;;;;20.23;30.97;101194.72;4293879;27;19934;-61
2024/04/24 03:26:49;;;;;;;;;;;;;;;20.25;30.76;101196.34;4312977;27;19932;-61
2024/04/24 03:28:51;;;;;;;;;;;;;;;20.26;31.24;101197.22;4304559;27;19943;-60
2024/04/24 03:30:53;;;;;;;;;;;;;;;20.24;30.85;101199.13;4300144;27;20286;-61
2024/04/24 03:32:54;;;;;;;;;;;;;;;20.24;31.23;101193.78;4312908;27;19932;-60
2024/04/24 03:34:56;;;;;;;;;;;;;;;20.24;30.86;101194.66;4291752;27;19961;-60
2024/04/24 03:36:58;;;;;;;;;;;;;;;20.21;31.06;101194.84;4312611;27;19939;-59
2024/04/24 03:38:59;;;;;;;;;;;;;;;20.21;30.86;101189.50;4307256;27;20266;-59
2024/04/24 03:41:01;;;;;;;;;;;;;;;20.19;31.37;101187.91;4289256;27;19933;-60
2024/04/24 03:43:03;;;;;;;;;;;;;;;20.20;30.61;101190.47;4285253;27;19962;-60
2024/04/24 03:45:04;;;;;;;;;;;;;;;20.21;31.43;101191.34;4302596;27;19932;-60
2024/04/24 03:47:06;;;;;;;;;;;;;;;20.21;30.74;101189.50;4287216;27;20278;-60
2024/04/24 03:49:08;;;;;;;;;;;;;;;20.21;31.55;101194.84;4286947;27;19940;-60
2024/04/24 03:51:09;;;;;;;;;;;;;;;20.21;31.04;101188.66;4276554;27;19932;-61
2024/04/24 03:53:11;;;;;;;;;;;;;;;20.22;31.05;101187.69;4312423;27;20407;-60
2024/04/24 03:55:13;;;;;;;;;;;;;;;20.21;30.93;101180.66;4297514;27;19961;-60
2024/04/24 03:57:14;;;;;;;;;;;;;;;20.20;30.68;101179.78;4306805;27;20002;-59
2024/04/24 03:59:16;;;;;;;;;;;;;;;20.21;31.11;101176.16;4310137;27;20004;-60
2024/04/24 04:01:18;;;;;;;;;;;;;;;20.19;31.43;101182.56;4293894;27;20003;-61
2024/04/24 04:03:20;;;;;;;;;;;;;;;20.16;30.67;101182.75;4312073;27;19933;-61
2024/04/24 04:05:21;;;;;;;;;;;;;;;20.17;31.14;101179.13;4299940;27;19933;-61
2024/04/24 04:07:23;;;;;;;;;;;;;;;20.16;30.65;101185.44;4292447;27;19939;-60
2024/04/24 04:09:25;;;;;;;;;;;;;;;20.13;31.46;101189.16;4286671;27;19932;-61
2024/04/24 04:11:26;;;;;;;;;;;;;;;20.14;30.72;101182.03;4303393;27;19939;-61
2024/04/24 04:13:28;;;;;;;;;;;;;;;20.13;30.76;101189.16;4284988;27;19944;-61
2024/04/24 04:15:30;;;;;;;;;;;;;;;20.15;31.01;101181.91;4265461;27;19933;-60
2024/04/24 04:17:32;;;;;;;;;;;;;;;20.17;31.30;101184.47;4281548;27;20415;-61
2024/04/24 04:19:33;;;;;;;;;;;;;;;20.15;31.02;101189.94;4295213;27;19980;-61
2024/04/24 04:21:35;;;;;;;;;;;;;;;20.14;31.28;101193.56;4290085;27;19939;-61
2024/04/24 04:23:37;;;;;;;;;;;;;;;20.13;31.26;101186.50;4312292;27;19932;-61
2024/04/24 04:25:39;;;;;;;;;;;;;;;20.07;30.64;101186.91;4305393;27;19940;-61
2024/04/24 04:27:40;;;;;;;;;;;;;;;20.09;31.47;101185.00;4298332;27;20385;-61
2024/04/24 04:29:42;;;;;;;;;;;;;;;20.06;30.97;101191.41;4312307;27;19932;-61
2024/04/24 04:31:44;;;;;;;;;;;;;;;20.06;31.24;101185.22;4293191;27;19933;-61
2024/04/24 04:33:45;;;;;;;;;;;;;;;20.07;31.22;101189.59;4310030;27;19932;-60
2024/04/24 04:35:47;;;;;;;;;;;;;;;20.05;30.72;101183.50;4308228;27;19999;-61
2024/04/24 04:37:49;;;;;;;;;;;;;;;20.04;30.73;101192.50;4295202;27;19944;-59
2024/04/24 04:39:51;;;;;;;;;;;;;;;20.03;30.98;101190.78;4312077;27;20003;-60
2024/04/24 04:41:53;;;;;;;;;;;;;;;20.03;30.89;101193.44;4303595;27;19936;-60
2024/04/24 04:43:56;;;;;;;;;;;;;;;20.03;30.80;101188.94;4289150;27;19981;-61
2024/04/24 04:45:58;;;;;;;;;;;;;;;20.02;31.00;101189.91;4286439;27;19943;-61
2024/04/24 04:48:00;;;;;;;;;;;;;;;20.01;30.93;101184.69;4302680;27;19944;-60
2024/04/24 04:50:02;;;;;;;;;;;;;;;19.98;31.10;101193.75;4284594;27;19944;-61
2024/04/24 04:52:04;;;;;;;;;;;;;;;19.95;30.87;101192.16;4298377;27;20006;-61
2024/04/24 04:54:06;;;;;;;;;;;;;;;19.92;31.22;101191.50;4290730;27;19933;-61
2024/04/24 04:56:08;;;;;;;;;;;;;;;19.91;31.40;101192.44;4286456;27;19933;-60
2024/04/24 04:58:09;;;;;;;;;;;;;;;19.93;30.71;101190.53;4302217;27;20003;-61
2024/04/24 05:00:11;;;;;;;;;;;;;;;19.92;31.41;101189.66;4285062;27;20386;-61
2024/04/24 05:02:13;;;;;;;;;;;;;;;19.93;31.01;101187.88;4295209;27;19936;-62
2024/04/24 05:04:14;;;;;;;;;;;;;;;19.94;31.34;101182.44;4293441;27;20383;-61
2024/04/24 05:06:16;;;;;;;;;;;;;;;19.94;30.59;101186.91;4286632;27;19932;-60
2024/04/24 05:08:18;;;;;;;;;;;;;;;19.92;31.29;101186.16;4274056;27;19933;-61
2024/04/24 05:10:20;;;;;;;;;;;;;;;19.92;31.21;101188.84;4284590;27;19936;-60
2024/04/24 05:12:21;;;;;;;;;;;;;;;19.92;30.50;101183.50;4293107;27;19932;-60
2024/04/24 05:14:23;;;;;;;;;;;;;;;19.90;31.41;101183.59;4267400;27;19940;-60
2024/04/24 05:16:25;;;;;;;;;;;;;;;19.89;30.98;101187.22;4284132;27;20298;-60
2024/04/24 05:18:27;;;;;;;;;;;;;;;19.88;31.42;101185.50;4303677;27;19939;-61
2024/04/24 05:20:29;;;;;;;;;;;;;;;19.87;31.11;101182.97;4311825;27;19939;-61
2024/04/24 05:22:36;;;;;;;;;;;;;;;19.86;30.69;101181.25;4305417;27;19932;-61
2024/04/24 05:24:38;;;;;;;;;;;;;;;19.88;31.31;101176.63;4298515;27;20003;-61
2024/04/24 05:29:03;;;;;;;;;;;;;;;19.90;31.35;101180.94;4293116;27;19933;-60
2024/04/24 05:31:05;;;;;;;;;;;;;;;19.91;30.82;101179.94;4308609;27;19932;-61
2024/04/24 05:33:06;;;;;;;;;;;;;;;19.91;30.67;101177.28;4293285;27;19932;-60
2024/04/24 05:35:08;;;;;;;;;;;;;;;19.92;31.38;101179.00;4295087;27;19935;-61
2024/04/24 05:37:10;;;;;;;;;;;;;;;19.91;31.27;101184.44;4284948;27;19932;-61
2024/04/24 05:39:14;;;;;;;;;;;;;;;19.90;30.95;101178.28;4302978;27;19956;-61
2024/04/24 05:41:15;;;;;;;;;;;;;;;19.90;31.05;101177.41;4284518;27;19933;-61
2024/04/24 05:43:17;;;;;;;;;;;;;;;19.91;30.61;101176.44;4290983;27;20513;-61
2024/04/24 05:45:19;;;;;;;;;;;;;;;19.91;30.73;101179.94;4296710;27;19932;-60
2024/04/24 05:47:20;;;;;;;;;;;;;;;19.92;31.25;101179.00;4284181;27;19933;-59
2024/04/24 05:49:22;;;;;;;;;;;;;;;19.91;30.93;101174.59;4303547;27;19940;-61
2024/04/24 05:51:24;;;;;;;;;;;;;;;19.92;31.06;101178.16;4284686;27;19933;-60
2024/04/24 05:53:26;;;;;;;;;;;;;;;19.89;30.96;101178.34;4288178;27;19936;-60
2024/04/24 05:55:27;;;;;;;;;;;;;;;19.90;30.90;101174.72;4299987;27;19937;-60
2024/04/24 05:57:29;;;;;;;;;;;;;;;19.92;30.65;101170.16;4284103;27;19932;-61
2024/04/24 05:59:31;;;;;;;;;;;;;;;19.92;30.71;101171.00;4300126;27;19932;-61
2024/04/24 06:01:32;;;;;;;;;;;;;;;19.91;30.73;101166.59;4287408;27;19932;-61
2024/04/24 06:03:34;;;;;;;;;;;;;;;19.90;31.38;101164.91;4285937;27;20294;-61
2024/04/24 06:05:35;;;;;;;;;;;;;;;19.88;30.87;101168.63;4302012;27;19933;-61
2024/04/24 06:07:37;;;;;;;;;;;;;;;19.90;31.45;101166.72;4283767;27;20267;-61
2024/04/24 06:09:39;;;;;;;;;;;;;;;19.90;31.45;101169.38;4291053;27;19948;-61
2024/04/24 06:11:41;;;;;;;;;;;;;;;19.90;30.98;101162.25;4307362;27;19948;-61
2024/04/24 06:13:43;;;;;;;;;;;;;;;19.89;30.77;101160.53;4281829;27;20299;-61
2024/04/24 06:15:44;;;;;;;;;;;;;;;19.91;30.89;101168.44;4294886;27;19963;-61
2024/04/24 06:17:46;;;;;;;;;;;;;;;19.90;30.73;101170.25;4292404;27;19933;-61
2024/04/24 06:19:48;;;;;;;;;;;;;;;19.94;30.88;101168.25;4297470;27;19936;-61
2024/04/24 06:21:49;;;;;;;;;;;;;;;19.90;31.49;101164.91;4295270;27;19932;-61
2024/04/24 06:23:51;;;;;;;;;;;;;;;19.90;31.10;101170.25;4288419;27;19933;-61
2024/04/24 06:25:53;;;;;;;;;;;;;;;19.90;30.85;101167.59;4304660;27;20041;-60
2024/04/24 06:27:55;;;;;;;;;;;;;;;19.91;31.29;101169.28;4286531;27;19932;-61
2024/04/24 06:29:57;;;;;;;;;;;;;;;19.91;31.30;101171.09;4294134;27;20006;-62
2024/04/24 06:31:59;;;;;;;;;;;;;;;19.91;31.47;101171.94;4297613;27;19940;-60
2024/04/24 06:34:01;;;;;;;;;;;;;;;19.91;31.09;101165.75;4258309;27;20038;-60
2024/04/24 06:36:04;;;;;;;;;;;;;;;19.91;30.91;101168.44;4292680;27;19940;-61
2024/04/24 06:38:07;;;;;;;;;;;;;;;19.92;30.78;101162.97;4313354;27;20251;-61
2024/04/24 06:40:09;;;;;;;;;;;;;;;19.90;31.54;101167.59;4306191;27;19951;-60
2024/04/24 06:42:11;;;;;;;;;;;;;;;19.89;30.96;101162.34;4299983;27;19939;-60
2024/04/24 06:44:13;;;;;;;;;;;;;;;19.89;30.96;101163.22;4312970;27;19932;-60
2024/04/24 06:46:15;;;;;;;;;;;;;;;19.87;30.93;101162.44;4293550;27;19948;-61
2024/04/24 06:48:16;;;;;;;;;;;;;;;19.89;31.57;101155.19;4312329;27;19932;-60
2024/04/24 06:50:18;;;;;;;;;;;;;;;19.89;31.15;101160.53;4279755;27;19948;-59
2024/04/24 06:52:20;;;;;;;;;;;;;;;19.88;31.38;101155.28;4268604;27;19933;-61
2024/04/24 06:54:22;;;;;;;;;;;;;;;19.87;31.65;101151.78;4313327;27;20278;-60
2024/04/24 06:56:23;;;;;;;;;;;;;;;19.86;31.48;101158.06;4296149;27;19933;-60
2024/04/24 06:58:25;;;;;;;;;;;;;;;19.85;30.76;101152.84;4309029;27;19940;-60
2024/04/24 07:00:30;;;;;;;;;;;;;;;19.85;30.86;101159.00;4310847;27;19935;-61
2024/04/24 07:02:32;;;;;;;;;;;;;;;19.85;30.99;101156.34;4277288;27;20007;-60
2024/04/24 07:04:33;;;;;;;;;;;;;;;19.79;31.16;101154.06;4313316;27;19956;-61
2024/04/24 07:06:35;;;;;;;;;;;;;;;19.76;30.74;101159.63;4298187;27;19937;-60
2024/04/24 07:08:38;;;;;;;;;;;;;;;19.77;31.34;101159.50;4307283;27;19932;-60
2024/04/24 07:10:40;;;;;;;;;;;;;;;19.76;31.03;101151.63;4294149;27;19955;-60
2024/04/24 07:12:41;;;;;;;;;;;;;;;19.77;30.81;101154.19;4303709;27;20286;-59
2024/04/24 07:14:47;;;;;;;;;;;;;;;19.72;31.57;101156.31;4285886;27;19939;-60
2024/04/24 07:16:48;;;;;;;;;;;;;;;19.70;31.23;101152.03;4290400;27;19933;-60
2024/04/24 07:18:50;;;;;;;;;;;;;;;19.62;31.62;101155.19;4298742;27;19933;-59
2024/04/24 07:20:52;;;;;;;;;;;;;;;19.57;31.06;101150.16;4287777;27;19940;-59
2024/04/24 07:22:53;;;;;;;;;;;;;;;19.52;30.80;101144.28;4303913;27;19933;-59
2024/04/24 07:24:55;;;;;;;;;;;;;;;19.50;31.49;101154.19;4285953;27;19944;-60
2024/04/24 07:26:57;;;;;;;;;;;;;;;19.48;31.21;101148.97;4295211;27;20465;-60
2024/04/24 07:28:59;;;;;;;;;;;;;;;19.48;31.61;101153.47;4295574;27;20371;-61
2024/04/24 07:31:01;;;;;;;;;;;;;;;19.49;31.25;101144.50;4258424;27;20376;-61
2024/04/24 07:33:03;;;;;;;;;;;;;;;19.50;31.04;101150.69;4304055;27;19939;-60
2024/04/24 07:35:05;;;;;;;;;;;;;;;19.50;31.12;101140.84;4285801;27;19932;-63
2024/04/24 07:37:07;;;;;;;;;;;;;;;19.49;30.87;101141.84;4292929;27;20006;-61
2024/04/24 07:39:08;;;;;;;;;;;;;;;19.47;31.28;101141.09;4298023;27;19933;-61
2024/04/24 07:41:10;;;;;;;;;;;;;;;19.45;31.11;101151.00;4284997;27;19944;-61
2024/04/24 07:43:13;;;;;;;;;;;;;;;19.43;31.72;101147.56;4305318;27;19932;-61
2024/04/24 07:45:15;;;;;;;;;;;;;;;19.39;31.67;101151.41;4258900;27;19937;-61
2024/04/24 07:47:17;;;;;;;;;;;;;;;19.40;31.56;101150.44;4275936;27;19933;-61
2024/04/24 07:49:18;;;;;;;;;;;;;;;19.35;31.14;101150.75;4300368;27;19932;-64
2024/04/24 07:51:20;;;;;;;;;;;;;;;19.34;31.62;101148.19;4285572;27;20425;-59
2024/04/24 07:53:22;;;;;;;;;;;;;;;19.34;30.93;101157.03;4302867;27;20367;-61
2024/04/24 07:55:23;;;;;;;;;;;;;;;19.36;31.57;101141.78;4287605;27;19933;-61
2024/04/24 07:57:25;;;;;;;;;;;;;;;19.39;31.12;101146.06;4287666;27;19941;-61
2024/04/24 07:59:27;;;;;;;;;;;;;;;19.39;31.37;101146.06;4303226;27;19933;-61
2024/04/24 08:01:29;;;;;;;;;;;;;;;19.39;31.13;101146.06;4285416;27;20331;-61
2024/04/24 08:03:31;;;;;;;;;;;;;;;19.39;31.56;101136.22;4299819;27;20016;-61
2024/04/24 08:05:33;;;;;;;;;;;;;;;19.44;31.07;101133.28;4289585;27;19933;-61
2024/04/24 08:07:35;;;;;;;;;;;;;;;19.43;31.54;101128.88;4296974;27;19972;-61
2024/04/24 08:09:36;;;;;;;;;;;;;;;19.37;31.62;101131.97;4304320;27;19940;-60
2024/04/24 08:11:38;;;;;;;;;;;;;;;19.32;31.96;101132.28;4285313;27;19940;-60
2024/04/24 08:13:40;;;;;;;;;;;;;;;19.38;31.76;101123.88;4300482;27;19944;-60
2024/04/24 08:15:44;;;;;;;;;;;;;;;19.33;31.43;101130.47;4291428;27;20004;-61
2024/04/24 08:17:47;;;;;;;;;;;;;;;19.37;32.04;101129.28;4283610;27;19940;-60
2024/04/24 08:19:48;;;;;;;;;;;;;;;19.39;31.63;101120.22;4281406;27;19937;-59
2024/04/24 08:21:50;;;;;;;;;;;;;;;19.33;31.44;101122.47;4282990;27;19932;-61
2024/04/24 08:23:53;;;;;;;;;;;;;;;19.24;31.59;101124.78;4293441;27;20378;-58
2024/04/24 08:25:55;;;;;;;;;;;;;;;19.28;31.57;101134.31;4281541;27;20012;-60
2024/04/24 08:27:57;;;;;;;;;;;;;;;19.33;31.83;101127.81;4287356;27;19939;-62
2024/04/24 08:29:58;;;;;;;;;;;;;;;19.17;31.40;101131.47;4298885;27;19932;-61
2024/04/24 08:32:00;;;;;;;;;;;;;;;19.24;31.08;101127.44;4284255;27;19940;-61
2024/04/24 08:34:02;;;;;;;;;;;;;;;19.27;31.13;101126.38;4290602;27;19943;-61
2024/04/24 08:36:13;;;;;;;;;;;;;;;19.29;31.39;101127.16;4310856;27;19932;-59
2024/04/24 08:38:17;;;;;;;;;;;;;;;19.22;31.64;101124.00;4309707;27;19944;-59
2024/04/24 08:40:21;;;;;;;;;;;;;;;19.27;31.21;101121.91;4292329;27;19944;-59
2024/04/24 08:42:23;;;;;;;;;;;;;;;19.41;31.30;101118.31;4275826;27;19932;-60
2024/04/24 08:44:27;;;;;;;;;;;;;;;19.46;31.27;101118.03;4297928;27;20274;-60
2024/04/24 08:46:30;;;;;;;;;;;;;;;19.49;30.84;101125.84;4311770;27;19932;-59
2024/04/24 08:48:42;;;;;;;;;;;;;;;19.47;30.95;101111.72;4310956;27;20002;-61
2024/04/24 08:50:45;;;;;;;;;;;;;;;19.59;30.79;101121.56;4295828;27;20299;-59
2024/04/24 08:52:53;;;;;;;;;;;;;;;19.59;30.90;101116.25;4299104;27;19966;-61
2024/04/24 08:54:57;;;;;;;;;;;;;;;19.62;30.26;101124.06;4294004;27;19933;-59
2024/04/24 08:57:00;;;;;;;;;;;;;;;19.56;30.51;101119.13;4286214;27;20335;-58
2024/04/24 08:59:04;;;;;;;;;;;;;;;19.52;30.74;101108.75;4285741;27;19933;-60
2024/04/24 09:01:08;;;;;;;;;;;;;;;19.58;30.98;101109.19;4299621;27;20036;-59
2024/04/24 09:03:15;;;;;;;;;;;;;;;19.57;30.57;101104.81;4279143;27;19943;-59
2024/04/24 09:05:17;;;;;;;;;;;;;;;19.66;30.80;101115.81;4295474;27;19980;-59
2024/04/24 09:07:21;;;;;;;;;;;;;;;19.78;29.46;101109.66;4293079;27;19940;-61
2024/04/24 09:09:23;;;;;;;;;;;;;;;19.70;30.30;101112.00;4297658;27;19932;-58
2024/04/24 09:11:25;;;;;;;;;;;;;;;19.87;30.37;101102.88;4302624;27;19932;-58
2024/04/24 09:13:31;;;;;;;;;;;;;;;20.02;30.56;101116.97;4275600;27;19933;-60
2024/04/24 09:15:34;;;;;;;;;;;;;;;20.16;30.17;101111.53;4296841;27;19933;-61
2024/04/24 09:17:36;;;;;;;;;;;;;;;20.30;30.20;101102.53;4300051;27;20386;-60
2024/04/24 09:19:39;;;;;;;;;;;;;;;20.39;29.87;101098.34;4308144;27;19940;-60
2024/04/24 09:21:41;;;;;;;;;;;;;;;20.49;30.05;101103.91;4302633;27;20003;-60
2024/04/24 09:23:42;;;;;;;;;;;;;;;20.51;30.16;101099.28;4261164;27;19932;-60
2024/04/24 09:25:44;;;;;;;;;;;;;;;20.42;28.95;101095.47;4269469;27;20417;-59
2024/04/24 09:27:46;;;;;;;;;;;;;;;20.47;29.83;101101.34;4293379;27;20007;-60
2024/04/24 09:29:48;;;;;;;;;;;;;;;20.50;29.18;101098.47;4293372;27;19944;-61
2024/04/24 09:31:50;;;;;;;;;;;;;;;20.53;29.48;101095.56;4298343;27;19940;-57
2024/04/24 09:33:52;;;;;;;;;;;;;;;20.61;30.10;101102.16;4284302;27;19956;-60
2024/04/24 09:35:53;;;;;;;;;;;;;;;20.59;29.42;101100.44;4289208;27;19933;-61
2024/04/24 09:37:56;;;;;;;;;;;;;;;20.62;28.79;101095.84;4267627;27;19974;-59
2024/04/24 09:40:00;;;;;;;;;;;;;;;20.55;28.84;101093.63;4283037;27;19943;-61
2024/04/24 09:42:02;;;;;;;;;;;;;;;20.58;28.44;101088.06;4302143;27;20374;-59
2024/04/24 09:44:09;;;;;;;;;;;;;;;20.64;28.77;101088.59;4284162;27;19933;-59
2024/04/24 09:46:11;;;;;;;;;;;;;;;20.69;29.39;101089.97;4264218;27;19940;-60
2024/04/24 09:48:16;;;;;;;;;;;;;;;20.73;28.85;101088.81;4252352;27;19937;-63
2024/04/24 09:50:24;;;;;;;;;;;;;;;20.81;29.07;101090.06;4276829;27;20383;-63
2024/04/24 09:52:26;;;;;;;;;;;;;;;20.75;28.80;101088.69;4286915;27;20224;-63
2024/04/24 09:54:28;;;;;;;;;;;;;;;20.67;28.41;101096.38;4280762;27;20011;-62
2024/04/24 09:56:30;;;;;;;;;;;;;;;20.61;28.70;101105.69;4285051;27;19932;-62
2024/04/24 09:58:33;;;;;;;;;;;;;;;20.59;28.70;101102.28;4284207;27;19933;-62
2024/04/24 10:00:35;;;;;;;;;;;;;;;20.60;27.90;101098.66;4282195;27;19939;-62
2024/04/24 10:02:39;;;;;;;;;;;;;;;20.69;27.81;101102.47;4290284;27;20371;-60
2024/04/24 10:04:44;;;;;;;;;;;;;;;20.66;28.35;101084.00;4286450;27;19952;-63
2024/04/24 10:06:48;;;;;;;;;;;;;;;20.80;28.16;101088.34;4283328;27;19961;-61
2024/04/24 10:08:54;;;;;;;;;;;;;;;20.81;28.50;101079.38;4278975;27;20298;-61
2024/04/24 10:10:56;;;;;;;;;;;;;;;20.93;27.84;101081.16;4279814;27;19939;-66
2024/04/24 10:13:00;;;;;;;;;;;;;;;20.83;27.36;101086.31;4282248;27;19933;-65
2024/04/24 10:15:09;;;;;;;;;;;;;;;20.73;26.92;101080.78;4306884;27;19933;-64
2024/04/24 10:17:11;;;;;;;;;;;;;;;20.71;26.95;101079.16;4300520;27;20000;-65
2024/04/24 10:19:15;;;;;;;;;;;;;;;20.70;27.63;101077.44;4298562;27;20384;-64
2024/04/24 10:21:17;;;;;;;;;;;;;;;20.77;27.28;101075.19;4305301;27;19932;-65
2024/04/24 10:23:20;;;;;;;;;;;;;;;20.81;26.94;101069.53;4289991;27;19933;-64
2024/04/24 10:25:22;;;;;;;;;;;;;;;20.82;27.05;101065.06;4288815;27;19976;-63
2024/04/24 10:27:24;;;;;;;;;;;;;;;20.89;26.41;101072.50;4280018;27;19944;-67
2024/04/24 10:29:27;;;;;;;;;;;;;;;20.88;26.21;101067.28;4270970;27;19952;-66